Time;durP1;ratioP1;P1;durP2;ratioP2;P2;SDS_P1;SDS_P2;PMS_P1;PMS_P2;Temp;Humidity;BMP_temperature;BMP_pressure;BME280_temperature;BME280_humidity;BME280_pressure;Samples;Min_cycle;Max_cycle;Signal;HPM_P1;HPM_P2
2024/01/31 00:01:09;;;;;;;14.03;7.07;;;17.70;55.60;;;;;;5013766;28;20455;-74
2024/01/31 00:03:37;;;;;;;14.13;7.40;;;17.70;55.70;;;;;;5013113;28;20448;-75
2024/01/31 00:06:05;;;;;;;28.37;7.57;;;17.70;55.70;;;;;;5013492;28;20523;-74
2024/01/31 00:08:35;;;;;;;13.73;7.07;;;17.60;55.60;;;;;;5010949;28;20453;-75
2024/01/31 00:11:03;;;;;;;11.60;6.53;;;17.70;55.70;;;;;;5013502;28;20493;-75
2024/01/31 00:13:31;;;;;;;15.23;6.63;;;17.70;55.80;;;;;;5012755;28;20463;-75
2024/01/31 00:15:59;;;;;;;11.77;6.30;;;17.70;55.60;;;;;;5012849;28;20569;-77
2024/01/31 00:18:27;;;;;;;18.23;7.70;;;17.60;55.70;;;;;;5012541;28;20467;-75
2024/01/31 00:20:55;;;;;;;10.50;6.27;;;17.70;55.90;;;;;;5012366;28;20471;-74
2024/01/31 00:23:23;;;;;;;10.80;6.30;;;17.60;55.70;;;;;;5011125;28;20511;-74
2024/01/31 00:25:52;;;;;;;11.00;6.10;;;17.70;56.00;;;;;;5012673;28;20523;-75
2024/01/31 00:28:20;;;;;;;11.77;6.20;;;17.70;55.90;;;;;;5012972;28;20532;-73
2024/01/31 00:30:47;;;;;;;12.17;6.67;;;17.70;55.80;;;;;;5013852;28;20455;-75
2024/01/31 00:33:15;;;;;;;12.97;6.00;;;17.60;55.90;;;;;;5021696;28;20555;-74
2024/01/31 00:35:43;;;;;;;12.00;6.03;;;17.60;55.80;;;;;;5013963;28;20531;-75
2024/01/31 00:38:11;;;;;;;11.23;6.47;;;17.60;55.90;;;;;;5013695;28;20511;-74
2024/01/31 00:40:39;;;;;;;14.13;6.43;;;17.60;56.00;;;;;;5014110;28;20491;-75
2024/01/31 00:43:11;;;;;;;10.47;5.83;;;17.50;56.00;;;;;;5012966;28;20479;-75
2024/01/31 00:45:39;;;;;;;12.13;5.73;;;17.50;55.90;;;;;;5013713;28;20456;-75
2024/01/31 00:48:07;;;;;;;10.73;6.13;;;17.50;56.10;;;;;;5013150;28;20510;-77
2024/01/31 00:50:35;;;;;;;13.70;6.40;;;17.50;55.70;;;;;;5013312;28;20444;-76
2024/01/31 00:53:04;;;;;;;10.30;5.37;;;17.50;56.00;;;;;;5013104;28;20909;-74
2024/01/31 00:55:32;;;;;;;11.57;6.30;;;17.50;56.20;;;;;;5013339;28;20939;-74
2024/01/31 00:58:01;;;;;;;11.50;6.37;;;17.50;55.90;;;;;;5013389;28;20479;-75
2024/01/31 01:00:30;;;;;;;13.63;6.63;;;17.40;56.10;;;;;;5013385;28;20445;-75
2024/01/31 01:02:58;;;;;;;13.60;6.23;;;17.50;55.90;;;;;;5012642;28;20449;-74
2024/01/31 01:05:26;;;;;;;11.60;6.33;;;17.40;56.20;;;;;;5008078;28;20503;-75
2024/01/31 01:07:54;;;;;;;16.10;6.00;;;17.40;56.10;;;;;;5012696;28;20476;-75
2024/01/31 01:10:24;;;;;;;12.33;6.53;;;17.40;56.10;;;;;;5013583;28;20452;-74
2024/01/31 01:12:52;;;;;;;8.23;5.40;;;17.40;56.00;;;;;;5013596;28;20451;-74
2024/01/31 01:15:20;;;;;;;10.60;6.07;;;17.40;55.90;;;;;;5012970;28;20524;-74
2024/01/31 01:17:49;;;;;;;12.50;6.20;;;17.40;56.30;;;;;;5012954;28;20586;-73
2024/01/31 01:20:18;;;;;;;9.40;5.40;;;17.40;56.00;;;;;;5013086;28;20450;-73
2024/01/31 01:22:47;;;;;;;11.03;6.20;;;17.40;56.00;;;;;;5012844;28;20444;-73
2024/01/31 01:25:15;;;;;;;9.07;5.60;;;17.40;56.30;;;;;;5012829;28;20506;-73
2024/01/31 01:27:50;;;;;;;9.93;5.63;;;17.40;56.20;;;;;;5012680;28;20444;-74
2024/01/31 01:30:18;;;;;;;11.37;6.27;;;17.40;56.30;;;;;;5012923;28;20426;-74
2024/01/31 01:32:47;;;;;;;9.67;5.70;;;17.40;56.20;;;;;;5012615;28;20521;-73
2024/01/31 01:35:16;;;;;;;11.20;6.23;;;17.40;56.20;;;;;;5012429;28;20453;-74
2024/01/31 01:37:44;;;;;;;12.63;5.33;;;17.40;56.20;;;;;;5011967;28;20567;-74
2024/01/31 01:40:15;;;;;;;10.77;5.43;;;17.30;56.10;;;;;;5008153;28;20540;-74
2024/01/31 01:42:47;;;;;;;12.03;5.93;;;17.30;55.90;;;;;;5019881;28;20439;-72
2024/01/31 01:45:16;;;;;;;9.63;5.20;;;17.30;56.10;;;;;;5031406;28;20416;-74
2024/01/31 01:47:48;;;;;;;12.30;6.57;;;17.30;56.10;;;;;;5031541;28;20502;-74
2024/01/31 01:50:19;;;;;;;8.80;5.37;;;17.30;56.00;;;;;;5032153;28;20436;-74
2024/01/31 01:52:47;;;;;;;10.63;6.00;;;17.30;56.10;;;;;;5032200;28;20439;-73
2024/01/31 01:55:16;;;;;;;10.57;6.53;;;17.30;56.20;;;;;;5031383;28;20467;-74
2024/01/31 01:57:44;;;;;;;12.93;8.60;;;17.30;56.00;;;;;;5031871;28;20502;-74
2024/01/31 02:00:13;;;;;;;11.80;7.03;;;17.20;56.10;;;;;;5032264;28;20456;-74
2024/01/31 02:02:41;;;;;;;16.17;8.57;;;17.30;56.20;;;;;;5031555;28;20539;-74
2024/01/31 02:05:09;;;;;;;15.40;9.07;;;17.30;56.20;;;;;;5030914;28;20495;-74
2024/01/31 02:07:38;;;;;;;12.90;8.23;;;17.30;56.20;;;;;;5031946;28;20435;-74
2024/01/31 02:10:08;;;;;;;15.33;8.83;;;17.20;56.20;;;;;;5031613;28;20451;-76
2024/01/31 02:12:36;;;;;;;13.70;8.73;;;17.20;56.10;;;;;;5031909;28;20439;-74
2024/01/31 02:15:04;;;;;;;17.63;10.50;;;17.20;56.20;;;;;;5031312;28;20459;-75
2024/01/31 02:17:33;;;;;;;14.30;8.90;;;17.20;56.20;;;;;;5031761;28;20518;-75
2024/01/31 02:20:01;;;;;;;17.73;10.40;;;17.20;56.20;;;;;;5031145;28;20443;-74
2024/01/31 02:22:30;;;;;;;19.20;10.20;;;17.20;56.30;;;;;;5031550;28;20440;-75
2024/01/31 02:24:59;;;;;;;17.77;10.23;;;17.20;56.20;;;;;;5030963;28;20490;-75
2024/01/31 02:27:27;;;;;;;20.33;11.07;;;17.20;56.40;;;;;;5031129;28;20443;-74
2024/01/31 02:29:55;;;;;;;17.10;10.07;;;17.20;56.30;;;;;;5031259;28;20543;-74
2024/01/31 02:32:23;;;;;;;18.30;10.80;;;17.20;56.20;;;;;;5031270;28;20440;-75
2024/01/31 02:34:51;;;;;;;20.90;10.40;;;17.20;56.20;;;;;;5030430;28;20452;-75
2024/01/31 02:37:19;;;;;;;19.23;10.50;;;17.20;56.20;;;;;;5031064;28;20992;-75
2024/01/31 02:39:48;;;;;;;20.43;11.10;;;17.20;56.20;;;;;;5031596;28;20438;-74
2024/01/31 02:42:16;;;;;;;19.70;10.90;;;17.20;56.20;;;;;;5031027;28;20529;-75
2024/01/31 02:44:44;;;;;;;20.63;11.53;;;17.20;56.20;;;;;;5029953;28;20513;-74
2024/01/31 02:47:11;;;;;;;18.13;10.70;;;17.10;56.00;;;;;;5029585;28;20526;-74
2024/01/31 02:49:40;;;;;;;20.37;11.50;;;17.20;56.30;;;;;;5031369;28;20447;-74
2024/01/31 02:52:08;;;;;;;20.70;10.97;;;17.10;56.30;;;;;;5031544;28;20473;-76
2024/01/31 02:54:36;;;;;;;22.00;11.73;;;17.10;56.40;;;;;;5031065;28;20471;-75
2024/01/31 02:57:06;;;;;;;19.43;11.23;;;17.10;56.20;;;;;;5032058;28;20512;-75
2024/01/31 02:59:34;;;;;;;19.97;11.53;;;17.10;56.10;;;;;;5031632;28;20470;-75
2024/01/31 03:02:05;;;;;;;17.40;10.73;;;17.10;56.30;;;;;;5032152;28;20526;-76
2024/01/31 03:04:33;;;;;;;20.20;10.87;;;17.10;56.10;;;;;;5031613;28;20467;-75
2024/01/31 03:07:01;;;;;;;21.63;11.03;;;17.10;56.30;;;;;;5031482;28;20460;-75
2024/01/31 03:09:29;;;;;;;18.37;10.97;;;17.10;55.90;;;;;;5031490;28;20488;-74
2024/01/31 03:11:57;;;;;;;21.13;10.43;;;17.10;56.30;;;;;;5031131;28;20486;-74
2024/01/31 03:14:26;;;;;;;15.90;10.60;;;17.10;56.30;;;;;;5031113;28;20447;-74
2024/01/31 03:16:54;;;;;;;16.57;10.70;;;17.10;56.30;;;;;;5031357;28;20475;-74
2024/01/31 03:19:22;;;;;;;18.73;11.17;;;17.10;56.20;;;;;;5031561;28;20471;-74
2024/01/31 03:21:50;;;;;;;19.10;10.73;;;17.10;56.20;;;;;;5031491;28;20519;-75
2024/01/31 03:24:18;;;;;;;17.60;10.67;;;17.10;56.50;;;;;;5030954;28;20480;-74
2024/01/31 03:26:46;;;;;;;15.77;10.70;;;17.00;56.30;;;;;;5031274;28;20485;-74
2024/01/31 03:29:14;;;;;;;16.07;9.43;;;17.10;56.30;;;;;;5031046;28;20534;-74
2024/01/31 03:31:43;;;;;;;19.43;10.67;;;17.10;56.10;;;;;;5032133;28;20447;-74
2024/01/31 03:34:11;;;;;;;16.30;10.30;;;17.10;56.40;;;;;;5028655;28;20929;-74
2024/01/31 03:36:40;;;;;;;16.87;10.20;;;17.10;56.30;;;;;;5014151;28;20448;-74
2024/01/31 03:39:08;;;;;;;17.33;10.27;;;17.00;56.10;;;;;;5014132;28;20472;-74
2024/01/31 03:41:36;;;;;;;16.60;9.60;;;17.00;56.20;;;;;;5013899;28;20447;-75
2024/01/31 03:44:04;;;;;;;14.27;9.27;;;17.00;56.40;;;;;;5013580;28;20502;-74
2024/01/31 03:46:32;;;;;;;14.90;8.70;;;17.00;56.20;;;;;;5014611;28;20483;-75
2024/01/31 03:49:02;;;;;;;13.90;8.93;;;17.00;56.30;;;;;;5014239;28;20452;-75
2024/01/31 03:51:30;;;;;;;15.23;9.87;;;17.00;56.30;;;;;;5014542;28;20454;-75
2024/01/31 03:53:58;;;;;;;15.83;9.43;;;17.00;56.30;;;;;;5013412;28;20518;-74
2024/01/31 03:56:26;;;;;;;15.83;8.90;;;17.00;56.30;;;;;;5013739;28;20475;-75
2024/01/31 03:58:54;;;;;;;13.30;8.93;;;17.00;56.10;;;;;;5013839;28;20555;-74
2024/01/31 04:01:22;;;;;;;14.30;8.30;;;17.00;56.20;;;;;;5013851;28;20448;-74
2024/01/31 04:03:51;;;;;;;15.37;9.30;;;17.00;56.20;;;;;;5013573;28;20526;-73
2024/01/31 04:06:20;;;;;;;14.37;8.33;;;17.00;56.30;;;;;;5013877;28;20444;-75
2024/01/31 04:08:48;;;;;;;11.20;7.77;;;17.00;56.30;;;;;;5013814;28;20535;-75
2024/01/31 04:11:16;;;;;;;12.57;8.03;;;17.00;56.20;;;;;;5013791;28;20449;-74
2024/01/31 04:13:44;;;;;;;12.90;8.20;;;17.00;56.40;;;;;;5013424;28;20496;-74
2024/01/31 04:16:15;;;;;;;16.10;8.93;;;17.00;56.10;;;;;;5014111;28;20935;-74
2024/01/31 04:18:44;;;;;;;12.50;7.80;;;16.90;56.10;;;;;;5013936;28;20490;-74
2024/01/31 04:21:20;;;;;;;13.50;7.77;;;17.00;56.30;;;;;;5014330;28;20470;-74
2024/01/31 04:23:49;;;;;;;14.17;7.63;;;16.90;56.20;;;;;;5013624;28;20476;-74
2024/01/31 04:26:17;;;;;;;11.77;7.30;;;16.90;56.40;;;;;;5014016;28;20864;-74
2024/01/31 04:28:45;;;;;;;10.17;6.60;;;16.90;56.30;;;;;;5013486;28;20501;-75
2024/01/31 04:31:14;;;;;;;11.40;7.13;;;17.00;56.20;;;;;;5000054;28;20519;-74
2024/01/31 04:33:42;;;;;;;10.83;6.80;;;16.90;56.10;;;;;;5012733;28;20499;-76
2024/01/31 04:36:10;;;;;;;10.93;6.63;;;16.90;56.20;;;;;;5013202;28;20448;-74
2024/01/31 04:38:40;;;;;;;11.43;6.70;;;16.90;56.30;;;;;;5013398;28;20559;-74
2024/01/31 04:41:08;;;;;;;10.10;6.43;;;16.90;56.40;;;;;;5013398;28;20445;-74
2024/01/31 04:43:36;;;;;;;10.77;7.00;;;16.90;56.40;;;;;;5012196;28;20576;-74
2024/01/31 04:46:05;;;;;;;8.50;6.50;;;16.90;56.50;;;;;;5013661;28;20506;-74
2024/01/31 04:48:33;;;;;;;9.10;6.30;;;16.80;56.30;;;;;;5013707;28;20483;-74
2024/01/31 04:51:03;;;;;;;8.63;6.00;;;16.90;56.40;;;;;;5013698;28;20448;-74
2024/01/31 04:53:31;;;;;;;9.23;6.13;;;16.80;56.20;;;;;;5012528;28;20498;-74
2024/01/31 04:56:01;;;;;;;10.57;6.63;;;16.90;56.30;;;;;;5013267;28;21013;-73
2024/01/31 04:58:29;;;;;;;9.07;5.83;;;16.80;56.20;;;;;;5013303;28;20449;-74
2024/01/31 05:00:57;;;;;;;8.20;6.30;;;16.80;56.20;;;;;;5012814;28;20440;-75
2024/01/31 05:03:25;;;;;;;10.07;5.80;;;16.80;56.30;;;;;;5012453;28;20897;-75
2024/01/31 05:05:52;;;;;;;8.53;5.60;;;16.80;56.50;;;;;;5013020;28;20475;-75
2024/01/31 05:08:20;;;;;;;9.70;6.07;;;16.80;56.40;;;;;;5005231;28;20477;-74
2024/01/31 05:10:48;;;;;;;8.00;5.40;;;16.80;56.30;;;;;;5009065;28;20503;-74
2024/01/31 05:13:18;;;;;;;12.60;5.70;;;16.80;56.30;;;;;;5011848;28;21054;-74
2024/01/31 05:15:46;;;;;;;9.17;5.43;;;16.80;56.20;;;;;;5012420;28;20463;-74
2024/01/31 05:18:14;;;;;;;7.17;5.30;;;16.80;56.40;;;;;;5012657;28;20700;-74
2024/01/31 05:20:42;;;;;;;8.33;4.83;;;16.80;56.50;;;;;;5012480;28;20514;-74
2024/01/31 05:23:10;;;;;;;6.40;4.77;;;16.80;56.50;;;;;;5011639;28;20484;-73
2024/01/31 05:25:38;;;;;;;9.50;5.03;;;16.80;56.20;;;;;;5012442;28;20436;-74
2024/01/31 05:28:06;;;;;;;10.27;5.63;;;16.80;56.40;;;;;;5012229;28;20444;-74
2024/01/31 05:30:35;;;;;;;7.33;5.30;;;16.80;56.40;;;;;;5012565;28;20490;-74
2024/01/31 05:33:03;;;;;;;6.63;5.10;;;16.70;56.40;;;;;;5012442;28;20480;-75
2024/01/31 05:35:35;;;;;;;9.00;4.63;;;16.70;56.40;;;;;;5011876;28;20931;-75
2024/01/31 05:38:03;;;;;;;7.47;5.30;;;16.70;56.40;;;;;;5011953;28;20448;-74
2024/01/31 05:40:31;;;;;;;7.80;4.97;;;16.70;56.50;;;;;;5005462;28;20555;-75
2024/01/31 05:42:59;;;;;;;7.07;4.47;;;16.70;56.40;;;;;;5001863;28;20449;-75
2024/01/31 05:45:27;;;;;;;5.73;4.40;;;16.70;56.50;;;;;;5011938;28;20448;-74
2024/01/31 05:47:57;;;;;;;4.60;3.90;;;16.70;56.40;;;;;;5011390;28;20494;-74
2024/01/31 05:50:25;;;;;;;5.90;4.40;;;16.70;56.30;;;;;;5008919;28;20475;-74
2024/01/31 05:52:53;;;;;;;6.97;4.23;;;16.70;56.30;;;;;;5032404;28;20531;-74
2024/01/31 05:55:21;;;;;;;7.67;4.50;;;16.60;56.10;;;;;;5032111;28;20538;-74
2024/01/31 05:57:49;;;;;;;6.03;4.13;;;16.60;56.50;;;;;;5032304;28;20451;-74
2024/01/31 06:00:17;;;;;;;9.10;5.00;;;16.60;56.40;;;;;;5031551;28;20563;-75
2024/01/31 06:02:46;;;;;;;5.77;4.00;;;16.60;56.40;;;;;;5021474;28;20539;-75
2024/01/31 06:05:20;;;;;;;5.73;4.33;;;16.60;56.50;;;;;;5011464;28;20459;-75
2024/01/31 06:07:48;;;;;;;7.13;4.03;;;16.60;56.50;;;;;;5011668;28;20490;-74
2024/01/31 06:10:16;;;;;;;5.50;3.43;;;16.50;56.20;;;;;;5011819;28;20542;-75
2024/01/31 06:12:44;;;;;;;6.73;3.87;;;16.50;56.20;;;;;;5011484;28;20952;-75
2024/01/31 06:15:13;;;;;;;7.03;4.33;;;16.50;56.30;;;;;;5011183;28;20515;-75
2024/01/31 06:17:41;;;;;;;5.40;3.87;;;16.50;56.20;;;;;;5012024;28;20440;-76
2024/01/31 06:20:11;;;;;;;4.60;3.87;;;16.50;56.30;;;;;;5011693;28;20561;-76
2024/01/31 06:22:40;;;;;;;5.43;3.77;;;16.50;56.30;;;;;;5007312;28;20887;-76
2024/01/31 06:25:09;;;;;;;6.23;3.93;;;16.50;56.30;;;;;;5011480;28;20472;-76
2024/01/31 06:27:37;;;;;;;5.73;4.30;;;16.50;56.40;;;;;;5011314;28;20510;-75
2024/01/31 06:30:06;;;;;;;5.23;3.80;;;16.40;56.20;;;;;;5010666;28;20445;-76
2024/01/31 06:32:37;;;;;;;4.13;3.60;;;16.50;56.50;;;;;;5011506;28;20444;-75
2024/01/31 06:35:06;;;;;;;3.90;3.20;;;16.50;56.30;;;;;;5010671;28;20495;-75
2024/01/31 06:37:34;;;;;;;4.93;3.47;;;16.50;56.40;;;;;;5011930;28;20447;-76
2024/01/31 06:40:04;;;;;;;5.53;3.50;;;16.50;56.40;;;;;;5011860;28;20852;-76
2024/01/31 06:42:32;;;;;;;5.00;3.50;;;16.50;56.40;;;;;;4992153;28;20449;-75
2024/01/31 06:45:00;;;;;;;3.90;3.10;;;16.50;56.30;;;;;;4991465;28;20457;-75
2024/01/31 06:47:28;;;;;;;4.53;3.27;;;16.50;56.40;;;;;;4992207;28;21076;-73
2024/01/31 06:49:56;;;;;;;4.53;3.23;;;16.50;56.50;;;;;;4992090;28;20445;-75
2024/01/31 06:52:25;;;;;;;4.97;3.33;;;16.50;56.60;;;;;;4994827;28;20459;-76
2024/01/31 06:54:52;;;;;;;3.97;3.20;;;16.40;56.30;;;;;;5011517;28;20495;-76
2024/01/31 06:57:22;;;;;;;3.77;3.23;;;16.40;56.10;;;;;;5012113;28;20448;-76
2024/01/31 06:59:50;;;;;;;4.10;3.03;;;16.40;56.40;;;;;;5011617;28;20531;-75
2024/01/31 07:02:18;;;;;;;4.60;3.30;;;16.40;56.20;;;;;;5011508;28;20439;-76
2024/01/31 07:04:46;;;;;;;5.47;3.37;;;16.40;56.50;;;;;;5010828;28;20869;-75
2024/01/31 07:07:14;;;;;;;4.50;3.33;;;16.40;56.50;;;;;;5014869;28;20475;-75
2024/01/31 07:09:42;;;;;;;3.07;2.80;;;16.40;56.20;;;;;;5015581;28;20440;-76
2024/01/31 07:12:10;;;;;;;4.90;3.43;;;16.30;56.40;;;;;;5015040;28;20440;-75
2024/01/31 07:14:41;;;;;;;4.60;3.10;;;16.40;56.40;;;;;;5014278;28;20475;-75
2024/01/31 07:17:09;;;;;;;4.50;3.03;;;16.40;56.40;;;;;;5014736;28;20420;-76
2024/01/31 07:19:37;;;;;;;5.00;3.23;;;16.30;56.40;;;;;;5012887;28;20481;-74
2024/01/31 07:22:05;;;;;;;3.57;3.07;;;16.30;56.10;;;;;;5014246;28;20446;-76
2024/01/31 07:24:33;;;;;;;4.53;3.23;;;16.30;56.10;;;;;;5013731;28;20465;-76
2024/01/31 07:27:02;;;;;;;4.27;3.17;;;16.30;56.30;;;;;;5014233;28;20451;-76
2024/01/31 07:29:30;;;;;;;3.53;3.07;;;16.30;56.30;;;;;;5014429;28;20901;-75
2024/01/31 07:32:00;;;;;;;3.30;3.00;;;16.20;56.20;;;;;;5014844;28;20507;-78
2024/01/31 07:34:28;;;;;;;5.57;3.07;;;16.30;56.30;;;;;;5011307;28;20495;-79
2024/01/31 07:36:56;;;;;;;3.20;2.70;;;16.20;56.00;;;;;;5013497;28;20455;-78
2024/01/31 07:39:24;;;;;;;3.03;2.73;;;16.30;56.30;;;;;;5013513;28;21027;-78
2024/01/31 07:41:53;;;;;;;3.03;2.63;;;16.20;56.20;;;;;;4998995;28;20508;-78
2024/01/31 07:44:21;;;;;;;4.43;2.90;;;16.20;56.00;;;;;;5009478;28;20464;-78
2024/01/31 07:46:49;;;;;;;3.73;2.77;;;16.30;56.20;;;;;;5013811;28;20448;-78
2024/01/31 07:49:18;;;;;;;2.90;2.57;;;16.30;56.00;;;;;;5013920;28;20440;-79
2024/01/31 07:51:47;;;;;;;2.77;2.50;;;16.20;56.20;;;;;;5008643;28;20456;-78
2024/01/31 07:54:16;;;;;;;2.70;2.50;;;16.30;56.00;;;;;;4997644;28;20473;-77
2024/01/31 07:56:44;;;;;;;2.90;2.27;;;16.30;56.10;;;;;;4998827;28;20448;-77
2024/01/31 07:59:13;;;;;;;3.57;2.43;;;16.30;55.90;;;;;;5013214;28;20562;-78
2024/01/31 08:01:41;;;;;;;4.57;2.97;;;16.30;56.20;;;;;;5013198;28;20507;-77
2024/01/31 08:04:09;;;;;;;4.30;2.57;;;16.30;55.90;;;;;;5012521;28;20551;-78
2024/01/31 08:06:39;;;;;;;6.03;2.90;;;16.30;56.00;;;;;;5011978;28;20456;-77
2024/01/31 08:09:07;;;;;;;8.23;2.50;;;16.30;56.00;;;;;;5012459;28;20490;-77
2024/01/31 08:11:48;;;;;;;2.63;2.20;;;16.30;56.10;;;;;;5012176;28;20445;-78
2024/01/31 08:14:16;;;;;;;2.60;2.40;;;16.30;56.30;;;;;;5011836;28;20476;-78
2024/01/31 08:16:46;;;;;;;6.93;2.87;;;16.30;56.00;;;;;;5012451;28;20485;-78
2024/01/31 08:19:15;;;;;;;3.47;2.27;;;16.30;56.10;;;;;;5009803;28;20453;-77
2024/01/31 08:21:44;;;;;;;2.60;2.40;;;16.30;56.30;;;;;;5013244;28;20507;-77
2024/01/31 08:24:12;;;;;;;4.83;2.40;;;16.30;56.20;;;;;;5012537;28;20479;-75
2024/01/31 08:26:40;;;;;;;6.43;2.47;;;16.30;56.00;;;;;;5011528;28;20452;-79
2024/01/31 08:29:08;;;;;;;3.17;2.57;;;16.30;56.20;;;;;;5013492;28;20895;-78
2024/01/31 08:31:49;;;;;;;4.90;2.53;;;16.30;56.40;;;;;;5009739;28;20443;-78
2024/01/31 08:34:17;;;;;;;3.27;2.37;;;16.30;56.20;;;;;;5012132;28;20452;-77
2024/01/31 08:36:48;;;;;;;3.63;2.23;;;16.30;56.40;;;;;;5010682;28;20448;-79
2024/01/31 08:39:16;;;;;;;3.00;2.57;;;16.30;56.10;;;;;;5009583;28;20440;-78
2024/01/31 08:41:45;;;;;;;4.73;2.63;;;16.40;56.10;;;;;;5012538;28;20546;-75
2024/01/31 08:44:14;;;;;;;2.60;2.40;;;16.40;56.10;;;;;;5010934;28;20479;-76
2024/01/31 08:46:44;;;;;;;4.10;1.93;;;16.40;56.20;;;;;;5013857;28;20455;-76
2024/01/31 08:49:34;;;;;;;2.90;2.30;;;16.40;56.00;;;;;;5012683;28;20428;-76
2024/01/31 08:52:07;;;;;;;1.90;1.80;;;16.40;56.30;;;;;;5013446;28;20440;-76
2024/01/31 08:54:36;;;;;;;2.40;2.20;;;16.40;56.00;;;;;;5012548;28;20498;-77
2024/01/31 08:57:05;;;;;;;2.20;1.77;;;16.40;56.30;;;;;;5009513;28;20445;-76
2024/01/31 08:59:33;;;;;;;2.83;1.90;;;16.50;56.10;;;;;;5013123;28;20544;-78
2024/01/31 09:02:01;;;;;;;4.10;2.40;;;16.50;56.30;;;;;;5012529;28;20526;-76
2024/01/31 09:04:29;;;;;;;3.33;1.90;;;16.50;56.20;;;;;;5012107;28;20472;-76
2024/01/31 09:06:57;;;;;;;2.33;2.13;;;16.50;56.00;;;;;;5012905;28;20436;-77
2024/01/31 09:09:27;;;;;;;4.07;2.33;;;16.50;56.10;;;;;;5012668;28;20448;-77
2024/01/31 09:11:55;;;;;;;3.50;2.10;;;16.50;56.10;;;;;;5012865;28;20464;-76
2024/01/31 09:14:24;;;;;;;3.73;1.90;;;16.50;56.00;;;;;;5012168;28;20468;-78
2024/01/31 09:16:52;;;;;;;3.67;2.00;;;16.50;56.10;;;;;;5011769;28;20448;-83
2024/01/31 09:19:20;;;;;;;5.43;1.87;;;16.50;56.10;;;;;;5012891;28;20535;-81
2024/01/31 09:21:48;;;;;;;5.43;1.90;;;16.50;56.00;;;;;;5014788;28;20475;-80
2024/01/31 09:24:16;;;;;;;2.97;1.90;;;16.60;56.20;;;;;;5014789;28;20503;-80
2024/01/31 09:26:46;;;;;;;5.57;2.17;;;16.60;56.10;;;;;;5014695;28;20477;-78
2024/01/31 09:29:16;;;;;;;2.43;1.80;;;16.60;56.20;;;;;;5011880;28;20468;-79
2024/01/31 09:31:44;;;;;;;1.80;1.70;;;16.60;55.90;;;;;;5013084;28;20448;-81
2024/01/31 09:34:12;;;;;;;2.50;1.60;;;16.60;56.10;;;;;;5016236;28;20468;-79
2024/01/31 09:36:40;;;;;;;4.40;2.27;;;16.70;56.00;;;;;;5010285;28;20456;-79
2024/01/31 09:39:10;;;;;;;3.53;2.30;;;16.60;55.80;;;;;;5010927;28;20507;-77
2024/01/31 09:41:38;;;;;;;2.67;1.73;;;16.70;55.80;;;;;;5004260;28;20528;-78
2024/01/31 09:44:09;;;;;;;2.00;1.40;;;16.70;55.90;;;;;;5013824;28;20499;-80
2024/01/31 09:46:37;;;;;;;2.90;1.90;;;16.70;55.80;;;;;;5014113;28;20487;-77
2024/01/31 09:49:05;;;;;;;2.07;1.87;;;16.70;55.80;;;;;;5012826;28;20467;-78
2024/01/31 09:51:34;;;;;;;5.60;1.90;;;16.70;55.80;;;;;;5013734;28;20449;-76
2024/01/31 09:54:02;;;;;;;3.17;1.80;;;16.80;55.70;;;;;;5012883;28;20522;-76
2024/01/31 09:56:32;;;;;;;4.93;2.10;;;16.80;55.80;;;;;;5011284;28;20453;-77
2024/01/31 09:59:00;;;;;;;3.33;2.10;;;16.80;55.80;;;;;;5014236;28;20551;-77
2024/01/31 10:01:30;;;;;;;2.57;1.40;;;16.80;55.80;;;;;;5015298;28;20468;-78
2024/01/31 10:04:00;;;;;;;3.27;1.70;;;16.80;55.80;;;;;;5016795;28;20685;-79
2024/01/31 10:06:29;;;;;;;8.13;1.70;;;16.80;55.60;;;;;;5015455;28;20539;-77
2024/01/31 10:08:58;;;;;;;3.57;1.60;;;16.80;55.80;;;;;;5009896;28;20462;-77
2024/01/31 10:11:28;;;;;;;1.70;1.60;;;16.90;55.70;;;;;;5013381;28;20444;-78
2024/01/31 10:13:57;;;;;;;6.80;1.53;;;16.90;55.60;;;;;;5009205;28;20499;-78
2024/01/31 10:16:25;;;;;;;3.03;1.70;;;16.90;55.60;;;;;;5014646;28;20523;-79
2024/01/31 10:18:55;;;;;;;2.43;1.70;;;16.90;55.50;;;;;;5006110;28;20467;-77
2024/01/31 10:21:23;;;;;;;2.60;1.70;;;17.00;55.40;;;;;;5014536;28;20479;-78
2024/01/31 10:23:58;;;;;;;1.93;1.43;;;17.00;55.40;;;;;;5009847;28;21056;-78
2024/01/31 10:26:26;;;;;;;2.90;1.60;;;17.00;55.30;;;;;;5012943;28;20463;-78
2024/01/31 10:28:56;;;;;;;1.73;1.50;;;17.00;55.30;;;;;;5007174;28;20911;-78
2024/01/31 10:31:36;;;;;;;2.90;2.10;;;17.00;55.40;;;;;;5014289;28;20487;-78
2024/01/31 10:34:05;;;;;;;3.07;1.60;;;17.00;55.40;;;;;;5010828;28;20460;-77
2024/01/31 10:36:33;;;;;;;1.87;1.40;;;17.00;55.30;;;;;;5010554;28;20450;-78
2024/01/31 10:39:05;;;;;;;2.67;1.37;;;17.00;55.30;;;;;;5018202;28;20522;-78
2024/01/31 10:41:34;;;;;;;1.93;1.57;;;17.10;55.20;;;;;;5012120;28;20449;-77
2024/01/31 10:44:03;;;;;;;2.40;1.60;;;17.00;55.20;;;;;;5012810;28;20496;-78
2024/01/31 10:46:31;;;;;;;4.43;1.70;;;17.00;55.10;;;;;;5013167;28;20863;-78
2024/01/31 10:49:00;;;;;;;3.17;1.33;;;17.10;55.20;;;;;;5012437;28;20444;-76
2024/01/31 10:51:29;;;;;;;3.70;1.70;;;17.10;55.00;;;;;;5006720;28;20455;-77
2024/01/31 10:53:57;;;;;;;7.27;1.60;;;17.10;55.70;;;;;;5003213;28;20912;-76
2024/01/31 10:56:26;;;;;;;2.40;1.30;;;17.10;55.10;;;;;;5009140;28;20452;-76
2024/01/31 10:58:54;;;;;;;3.47;1.63;;;17.10;55.10;;;;;;5006877;28;20456;-77
2024/01/31 11:01:29;;;;;;;3.10;1.70;;;17.20;55.10;;;;;;5002870;28;20460;-77
2024/01/31 11:03:57;;;;;;;4.30;1.50;;;17.20;55.00;;;;;;4996607;28;20483;-81
2024/01/31 11:06:25;;;;;;;1.73;1.60;;;17.20;55.00;;;;;;5014068;28;20444;-80
2024/01/31 11:08:54;;;;;;;3.60;1.70;;;17.20;55.00;;;;;;5015825;28;20436;-77
2024/01/31 11:11:22;;;;;;;2.03;1.60;;;17.30;55.00;;;;;;5007054;28;20426;-78
2024/01/31 11:13:56;;;;;;;1.70;1.57;;;17.20;55.00;;;;;;5011460;28;20514;-78
2024/01/31 11:16:24;;;;;;;1.80;1.70;;;17.20;54.90;;;;;;5004782;28;20445;-75
2024/01/31 11:18:52;;;;;;;4.00;1.67;;;17.30;55.00;;;;;;5001788;28;20483;-76
2024/01/31 11:21:22;;;;;;;3.00;1.27;;;17.30;54.90;;;;;;5008896;28;20453;-76
2024/01/31 11:23:50;;;;;;;1.53;1.43;;;17.30;54.90;;;;;;5008442;28;20479;-76
2024/01/31 11:26:29;;;;;;;4.80;1.87;;;17.40;55.00;;;;;;5009157;28;20452;-76
2024/01/31 11:28:57;;;;;;;2.03;1.40;;;17.40;54.80;;;;;;5002347;28;20454;-76
2024/01/31 11:31:25;;;;;;;4.40;1.87;;;17.40;55.00;;;;;;5006598;28;20456;-75
2024/01/31 11:33:55;;;;;;;2.43;1.40;;;17.40;54.70;;;;;;5012808;28;20484;-76
2024/01/31 11:36:23;;;;;;;2.93;1.20;;;17.50;55.00;;;;;;5010729;28;20444;-76
2024/01/31 11:38:51;;;;;;;2.47;1.33;;;17.60;55.00;;;;;;5014058;28;20475;-76
2024/01/31 11:41:22;;;;;;;3.13;1.57;;;17.70;55.00;;;;;;5011356;28;20468;-75
2024/01/31 11:43:50;;;;;;;1.90;1.23;;;17.80;54.70;;;;;;5008546;28;20482;-75
2024/01/31 11:46:18;;;;;;;7.80;1.70;;;18.00;54.80;;;;;;5004808;28;20506;-76
2024/01/31 11:48:46;;;;;;;4.93;1.80;;;18.10;54.30;;;;;;5006896;28;20535;-74
2024/01/31 11:51:14;;;;;;;1.60;1.50;;;18.10;54.00;;;;;;5005513;28;20593;-74
2024/01/31 11:53:42;;;;;;;2.50;1.27;;;18.20;54.00;;;;;;5011730;28;20548;-72
2024/01/31 11:56:10;;;;;;;3.50;1.40;;;18.20;53.80;;;;;;5003688;28;20444;-75
2024/01/31 11:58:40;;;;;;;3.73;1.40;;;18.20;53.70;;;;;;5008290;28;20444;-75
2024/01/31 12:01:07;;;;;;;1.80;1.40;;;18.10;53.40;;;;;;5012554;28;20494;-75
2024/01/31 12:03:36;;;;;;;2.23;1.47;;;18.10;53.40;;;;;;5012792;28;20487;-74
2024/01/31 12:06:04;;;;;;;2.23;1.67;;;18.10;53.50;;;;;;5013909;28;20436;-74
2024/01/31 12:08:33;;;;;;;1.37;1.27;;;18.10;53.50;;;;;;5007562;28;20436;-74
2024/01/31 12:11:02;;;;;;;1.67;1.20;;;18.20;53.30;;;;;;5014479;28;20456;-74
2024/01/31 12:13:30;;;;;;;1.50;1.20;;;18.20;53.40;;;;;;5014206;28;20971;-74
2024/01/31 12:16:00;;;;;;;1.80;1.67;;;18.20;53.30;;;;;;5013764;28;20468;-74
2024/01/31 12:18:28;;;;;;;1.73;1.50;;;18.20;53.10;;;;;;5014508;28;20465;-75
2024/01/31 12:21:03;;;;;;;1.90;1.57;;;18.20;53.20;;;;;;5014103;28;20451;-74
2024/01/31 12:23:31;;;;;;;2.70;1.57;;;18.20;52.90;;;;;;5012365;28;20475;-75
2024/01/31 12:25:59;;;;;;;2.70;1.43;;;18.20;53.10;;;;;;5012949;28;20543;-75
2024/01/31 12:28:27;;;;;;;5.73;1.30;;;18.10;53.00;;;;;;5013242;28;20460;-75
2024/01/31 12:30:56;;;;;;;2.27;1.53;;;18.20;53.10;;;;;;5004751;28;20484;-74
2024/01/31 12:33:25;;;;;;;2.00;1.67;;;18.20;53.00;;;;;;5012877;28;20511;-75
2024/01/31 12:35:54;;;;;;;2.47;1.40;;;18.10;52.90;;;;;;5012201;28;20459;-75
2024/01/31 12:38:21;;;;;;;4.27;1.67;;;18.10;53.00;;;;;;5013090;28;20432;-76
2024/01/31 12:40:51;;;;;;;3.33;1.57;;;18.10;53.00;;;;;;5013091;28;20496;-75
2024/01/31 12:43:20;;;;;;;5.13;1.80;;;18.10;53.10;;;;;;5012630;28;20472;-75
2024/01/31 12:45:50;;;;;;;7.80;1.83;;;18.10;53.10;;;;;;5013037;28;20511;-75
2024/01/31 12:48:18;;;;;;;3.93;1.60;;;18.10;53.00;;;;;;5013130;28;20480;-75
2024/01/31 12:50:48;;;;;;;3.53;1.30;;;18.00;53.10;;;;;;5007707;28;20451;-76